sensor_id;sensor_type;location;lat;lon;timestamp;P1;durP1;ratioP1;P2;durP2;ratioP2
42590;SDS011;28218;53.342;-6.216;2023-04-03T00:01:15;3.28;;;1.63;;
42590;SDS011;28218;53.342;-6.216;2023-04-03T00:03:44;3.13;;;1.17;;
42590;SDS011;28218;53.342;-6.216;2023-04-03T00:06:14;6.93;;;1.55;;
42590;SDS011;28218;53.342;-6.216;2023-04-03T00:08:42;4.70;;;1.63;;
42590;SDS011;28218;53.342;-6.216;2023-04-03T00:11:11;3.10;;;1.58;;
42590;SDS011;28218;53.342;-6.216;2023-04-03T00:13:39;5.72;;;1.63;;
42590;SDS011;28218;53.342;-6.216;2023-04-03T00:16:08;3.85;;;1.83;;
42590;SDS011;28218;53.342;-6.216;2023-04-03T00:18:38;2.88;;;1.95;;
42590;SDS011;28218;53.342;-6.216;2023-04-03T00:21:07;7.07;;;2.40;;
42590;SDS011;28218;53.342;-6.216;2023-04-03T00:23:37;4.90;;;1.70;;
42590;SDS011;28218;53.342;-6.216;2023-04-03T00:26:06;3.50;;;2.17;;
42590;SDS011;28218;53.342;-6.216;2023-04-03T00:28:34;3.58;;;1.63;;
42590;SDS011;28218;53.342;-6.216;2023-04-03T00:31:02;6.50;;;2.00;;
42590;SDS011;28218;53.342;-6.216;2023-04-03T00:33:31;2.28;;;1.42;;
42590;SDS011;28218;53.342;-6.216;2023-04-03T00:35:59;7.95;;;1.80;;
42590;SDS011;28218;53.342;-6.216;2023-04-03T00:38:33;4.15;;;1.95;;
42590;SDS011;28218;53.342;-6.216;2023-04-03T00:41:03;3.35;;;1.55;;
42590;SDS011;28218;53.342;-6.216;2023-04-03T00:43:32;1.73;;;1.27;;
42590;SDS011;28218;53.342;-6.216;2023-04-03T00:46:00;4.25;;;1.20;;
42590;SDS011;28218;53.342;-6.216;2023-04-03T00:48:30;4.05;;;1.35;;
42590;SDS011;28218;53.342;-6.216;2023-04-03T00:51:00;6.05;;;1.67;;
42590;SDS011;28218;53.342;-6.216;2023-04-03T00:53:30;4.78;;;1.40;;
42590;SDS011;28218;53.342;-6.216;2023-04-03T00:56:02;5.38;;;1.55;;
42590;SDS011;28218;53.342;-6.216;2023-04-03T00:58:37;6.93;;;1.40;;
42590;SDS011;28218;53.342;-6.216;2023-04-03T01:01:08;3.58;;;1.40;;
42590;SDS011;28218;53.342;-6.216;2023-04-03T01:03:42;6.75;;;1.70;;
42590;SDS011;28218;53.342;-6.216;2023-04-03T01:06:11;5.05;;;1.92;;
42590;SDS011;28218;53.342;-6.216;2023-04-03T01:08:40;3.70;;;1.17;;
42590;SDS011;28218;53.342;-6.216;2023-04-03T01:11:11;4.03;;;1.50;;
42590;SDS011;28218;53.342;-6.216;2023-04-03T01:13:39;4.63;;;1.83;;
42590;SDS011;28218;53.342;-6.216;2023-04-03T01:16:08;4.78;;;1.77;;
42590;SDS011;28218;53.342;-6.216;2023-04-03T01:18:37;3.22;;;1.20;;
42590;SDS011;28218;53.342;-6.216;2023-04-03T01:24:11;5.65;;;1.55;;
42590;SDS011;28218;53.342;-6.216;2023-04-03T01:26:54;4.10;;;1.50;;
42590;SDS011;28218;53.342;-6.216;2023-04-03T01:29:22;5.60;;;2.05;;
42590;SDS011;28218;53.342;-6.216;2023-04-03T01:31:53;4.97;;;1.17;;
42590;SDS011;28218;53.342;-6.216;2023-04-03T01:34:22;2.80;;;0.90;;
42590;SDS011;28218;53.342;-6.216;2023-04-03T01:36:51;3.53;;;1.48;;
42590;SDS011;28218;53.342;-6.216;2023-04-03T01:39:20;5.93;;;1.60;;
42590;SDS011;28218;53.342;-6.216;2023-04-03T01:41:48;1.70;;;1.45;;
42590;SDS011;28218;53.342;-6.216;2023-04-03T01:44:17;5.32;;;1.60;;
42590;SDS011;28218;53.342;-6.216;2023-04-03T01:46:45;5.53;;;1.33;;
42590;SDS011;28218;53.342;-6.216;2023-04-03T01:49:15;7.68;;;1.85;;
42590;SDS011;28218;53.342;-6.216;2023-04-03T01:51:43;6.72;;;1.63;;
42590;SDS011;28218;53.342;-6.216;2023-04-03T01:54:11;4.18;;;1.60;;
42590;SDS011;28218;53.342;-6.216;2023-04-03T01:56:40;3.83;;;1.33;;
42590;SDS011;28218;53.342;-6.216;2023-04-03T01:59:08;5.32;;;1.50;;
42590;SDS011;28218;53.342;-6.216;2023-04-03T02:01:36;2.30;;;1.35;;
42590;SDS011;28218;53.342;-6.216;2023-04-03T02:04:05;4.70;;;1.67;;
42590;SDS011;28218;53.342;-6.216;2023-04-03T02:06:34;6.43;;;1.50;;
42590;SDS011;28218;53.342;-6.216;2023-04-03T02:09:03;4.85;;;1.77;;
42590;SDS011;28218;53.342;-6.216;2023-04-03T02:11:31;3.50;;;1.70;;
42590;SDS011;28218;53.342;-6.216;2023-04-03T02:14:00;5.55;;;1.23;;
42590;SDS011;28218;53.342;-6.216;2023-04-03T02:16:28;3.10;;;1.58;;
42590;SDS011;28218;53.342;-6.216;2023-04-03T02:18:57;3.58;;;1.25;;
42590;SDS011;28218;53.342;-6.216;2023-04-03T02:21:25;1.58;;;1.33;;
42590;SDS011;28218;53.342;-6.216;2023-04-03T02:23:55;5.05;;;1.58;;
42590;SDS011;28218;53.342;-6.216;2023-04-03T02:26:24;5.80;;;1.92;;
42590;SDS011;28218;53.342;-6.216;2023-04-03T02:28:53;7.65;;;1.80;;
42590;SDS011;28218;53.342;-6.216;2023-04-03T02:31:21;3.05;;;1.13;;
42590;SDS011;28218;53.342;-6.216;2023-04-03T02:33:50;3.53;;;1.38;;
42590;SDS011;28218;53.342;-6.216;2023-04-03T02:36:19;3.28;;;1.60;;
42590;SDS011;28218;53.342;-6.216;2023-04-03T02:38:47;7.35;;;2.30;;
42590;SDS011;28218;53.342;-6.216;2023-04-03T02:41:17;3.28;;;1.42;;
42590;SDS011;28218;53.342;-6.216;2023-04-03T02:43:45;4.88;;;1.30;;
42590;SDS011;28218;53.342;-6.216;2023-04-03T02:46:13;6.60;;;1.60;;
42590;SDS011;28218;53.342;-6.216;2023-04-03T02:48:42;3.63;;;1.50;;
42590;SDS011;28218;53.342;-6.216;2023-04-03T02:51:10;6.95;;;1.80;;
42590;SDS011;28218;53.342;-6.216;2023-04-03T02:53:38;7.30;;;1.92;;
42590;SDS011;28218;53.342;-6.216;2023-04-03T02:56:07;3.67;;;1.48;;
42590;SDS011;28218;53.342;-6.216;2023-04-03T02:58:36;4.82;;;2.10;;
42590;SDS011;28218;53.342;-6.216;2023-04-03T03:01:04;10.63;;;2.28;;
42590;SDS011;28218;53.342;-6.216;2023-04-03T03:03:33;5.93;;;2.08;;
42590;SDS011;28218;53.342;-6.216;2023-04-03T03:06:02;5.55;;;1.83;;
42590;SDS011;28218;53.342;-6.216;2023-04-03T03:08:31;3.95;;;1.83;;
42590;SDS011;28218;53.342;-6.216;2023-04-03T03:11:00;5.45;;;2.00;;
42590;SDS011;28218;53.342;-6.216;2023-04-03T03:13:28;7.47;;;2.10;;
42590;SDS011;28218;53.342;-6.216;2023-04-03T03:15:59;6.63;;;2.03;;
42590;SDS011;28218;53.342;-6.216;2023-04-03T03:18:28;7.28;;;2.13;;
42590;SDS011;28218;53.342;-6.216;2023-04-03T03:20:57;8.40;;;2.22;;
42590;SDS011;28218;53.342;-6.216;2023-04-03T03:23:27;9.80;;;2.88;;
42590;SDS011;28218;53.342;-6.216;2023-04-03T03:25:57;7.22;;;1.85;;
42590;SDS011;28218;53.342;-6.216;2023-04-03T03:28:26;6.93;;;2.40;;
42590;SDS011;28218;53.342;-6.216;2023-04-03T03:30:55;10.25;;;2.40;;
42590;SDS011;28218;53.342;-6.216;2023-04-03T03:33:25;7.75;;;2.20;;
42590;SDS011;28218;53.342;-6.216;2023-04-03T03:35:54;4.13;;;2.25;;
42590;SDS011;28218;53.342;-6.216;2023-04-03T03:38:23;7.22;;;2.45;;
42590;SDS011;28218;53.342;-6.216;2023-04-03T03:40:51;4.78;;;2.28;;
42590;SDS011;28218;53.342;-6.216;2023-04-03T03:43:20;8.32;;;2.42;;
42590;SDS011;28218;53.342;-6.216;2023-04-03T03:45:49;6.85;;;2.72;;
42590;SDS011;28218;53.342;-6.216;2023-04-03T03:48:19;6.28;;;2.08;;
42590;SDS011;28218;53.342;-6.216;2023-04-03T03:50:50;9.13;;;2.53;;
42590;SDS011;28218;53.342;-6.216;2023-04-03T03:53:18;7.95;;;4.25;;
42590;SDS011;28218;53.342;-6.216;2023-04-03T03:55:46;5.53;;;2.55;;
42590;SDS011;28218;53.342;-6.216;2023-04-03T03:58:15;4.55;;;2.80;;
42590;SDS011;28218;53.342;-6.216;2023-04-03T04:00:43;8.07;;;2.50;;
42590;SDS011;28218;53.342;-6.216;2023-04-03T04:03:11;6.82;;;2.88;;
42590;SDS011;28218;53.342;-6.216;2023-04-03T04:05:39;8.43;;;2.95;;
42590;SDS011;28218;53.342;-6.216;2023-04-03T04:08:09;3.83;;;2.88;;
42590;SDS011;28218;53.342;-6.216;2023-04-03T04:10:37;8.18;;;2.88;;
42590;SDS011;28218;53.342;-6.216;2023-04-03T04:13:06;5.55;;;3.20;;
42590;SDS011;28218;53.342;-6.216;2023-04-03T04:15:34;8.40;;;3.47;;
42590;SDS011;28218;53.342;-6.216;2023-04-03T04:18:03;9.90;;;3.42;;
42590;SDS011;28218;53.342;-6.216;2023-04-03T04:20:31;6.70;;;2.90;;
42590;SDS011;28218;53.342;-6.216;2023-04-03T04:22:59;3.22;;;2.60;;
42590;SDS011;28218;53.342;-6.216;2023-04-03T04:25:29;12.55;;;3.40;;
42590;SDS011;28218;53.342;-6.216;2023-04-03T04:27:57;6.82;;;3.08;;
42590;SDS011;28218;53.342;-6.216;2023-04-03T04:30:25;10.85;;;3.30;;
42590;SDS011;28218;53.342;-6.216;2023-04-03T04:32:54;9.02;;;3.65;;
42590;SDS011;28218;53.342;-6.216;2023-04-03T04:35:22;6.05;;;3.22;;
42590;SDS011;28218;53.342;-6.216;2023-04-03T04:37:50;5.63;;;3.45;;
42590;SDS011;28218;53.342;-6.216;2023-04-03T04:40:19;6.97;;;3.60;;
42590;SDS011;28218;53.342;-6.216;2023-04-03T04:42:49;5.97;;;3.92;;
42590;SDS011;28218;53.342;-6.216;2023-04-03T04:45:17;9.65;;;3.95;;
42590;SDS011;28218;53.342;-6.216;2023-04-03T04:47:46;7.63;;;4.32;;
42590;SDS011;28218;53.342;-6.216;2023-04-03T04:50:14;7.70;;;4.80;;
42590;SDS011;28218;53.342;-6.216;2023-04-03T04:52:42;7.82;;;4.47;;
42590;SDS011;28218;53.342;-6.216;2023-04-03T04:55:10;13.20;;;5.75;;
42590;SDS011;28218;53.342;-6.216;2023-04-03T04:57:39;10.70;;;5.20;;
42590;SDS011;28218;53.342;-6.216;2023-04-03T05:00:09;8.40;;;4.97;;
42590;SDS011;28218;53.342;-6.216;2023-04-03T05:05:07;6.38;;;4.90;;
42590;SDS011;28218;53.342;-6.216;2023-04-03T05:07:36;7.55;;;5.47;;
42590;SDS011;28218;53.342;-6.216;2023-04-03T05:10:04;9.70;;;4.82;;
42590;SDS011;28218;53.342;-6.216;2023-04-03T05:12:34;9.50;;;4.45;;
42590;SDS011;28218;53.342;-6.216;2023-04-03T05:15:02;7.57;;;4.85;;
42590;SDS011;28218;53.342;-6.216;2023-04-03T05:17:32;10.25;;;5.20;;
42590;SDS011;28218;53.342;-6.216;2023-04-03T05:20:00;7.68;;;5.00;;
42590;SDS011;28218;53.342;-6.216;2023-04-03T05:22:29;8.80;;;5.25;;
42590;SDS011;28218;53.342;-6.216;2023-04-03T05:24:57;7.85;;;4.22;;
42590;SDS011;28218;53.342;-6.216;2023-04-03T05:27:25;8.65;;;4.85;;
42590;SDS011;28218;53.342;-6.216;2023-04-03T05:29:55;12.27;;;4.78;;
42590;SDS011;28218;53.342;-6.216;2023-04-03T05:32:24;8.68;;;4.47;;
42590;SDS011;28218;53.342;-6.216;2023-04-03T05:34:55;7.22;;;4.38;;
42590;SDS011;28218;53.342;-6.216;2023-04-03T05:37:26;10.30;;;5.57;;
42590;SDS011;28218;53.342;-6.216;2023-04-03T05:39:55;9.07;;;4.47;;
42590;SDS011;28218;53.342;-6.216;2023-04-03T05:42:23;9.98;;;4.97;;
42590;SDS011;28218;53.342;-6.216;2023-04-03T05:44:51;8.48;;;4.68;;
42590;SDS011;28218;53.342;-6.216;2023-04-03T05:47:20;8.75;;;4.82;;
42590;SDS011;28218;53.342;-6.216;2023-04-03T05:49:48;10.70;;;5.35;;
42590;SDS011;28218;53.342;-6.216;2023-04-03T05:52:20;17.65;;;5.10;;
42590;SDS011;28218;53.342;-6.216;2023-04-03T05:54:50;13.18;;;5.95;;
42590;SDS011;28218;53.342;-6.216;2023-04-03T05:57:19;16.35;;;6.20;;
42590;SDS011;28218;53.342;-6.216;2023-04-03T05:59:47;14.57;;;6.63;;
42590;SDS011;28218;53.342;-6.216;2023-04-03T06:02:16;24.58;;;8.73;;
42590;SDS011;28218;53.342;-6.216;2023-04-03T06:04:46;19.05;;;7.63;;
42590;SDS011;28218;53.342;-6.216;2023-04-03T06:07:16;21.45;;;7.93;;
42590;SDS011;28218;53.342;-6.216;2023-04-03T06:09:47;29.75;;;9.02;;
42590;SDS011;28218;53.342;-6.216;2023-04-03T06:12:16;22.77;;;8.20;;
42590;SDS011;28218;53.342;-6.216;2023-04-03T06:14:44;21.15;;;7.90;;
42590;SDS011;28218;53.342;-6.216;2023-04-03T06:17:13;22.33;;;8.13;;
42590;SDS011;28218;53.342;-6.216;2023-04-03T06:19:42;31.33;;;8.75;;
42590;SDS011;28218;53.342;-6.216;2023-04-03T06:22:11;20.83;;;7.57;;
42590;SDS011;28218;53.342;-6.216;2023-04-03T06:24:41;19.15;;;8.98;;
42590;SDS011;28218;53.342;-6.216;2023-04-03T06:27:10;20.48;;;7.93;;
42590;SDS011;28218;53.342;-6.216;2023-04-03T06:29:38;19.85;;;6.78;;
42590;SDS011;28218;53.342;-6.216;2023-04-03T06:32:07;16.73;;;7.10;;
42590;SDS011;28218;53.342;-6.216;2023-04-03T06:34:35;26.05;;;7.38;;
42590;SDS011;28218;53.342;-6.216;2023-04-03T06:37:03;21.40;;;7.43;;
42590;SDS011;28218;53.342;-6.216;2023-04-03T06:39:31;21.58;;;7.13;;
42590;SDS011;28218;53.342;-6.216;2023-04-03T06:42:01;23.63;;;8.32;;
42590;SDS011;28218;53.342;-6.216;2023-04-03T06:44:29;19.83;;;7.38;;
42590;SDS011;28218;53.342;-6.216;2023-04-03T06:47:00;22.48;;;6.85;;
42590;SDS011;28218;53.342;-6.216;2023-04-03T06:49:28;19.83;;;7.30;;
42590;SDS011;28218;53.342;-6.216;2023-04-03T06:51:57;17.92;;;6.95;;
42590;SDS011;28218;53.342;-6.216;2023-04-03T06:54:27;14.70;;;6.25;;
42590;SDS011;28218;53.342;-6.216;2023-04-03T06:56:56;26.80;;;8.00;;
42590;SDS011;28218;53.342;-6.216;2023-04-03T06:59:25;13.45;;;5.88;;
42590;SDS011;28218;53.342;-6.216;2023-04-03T07:01:54;22.10;;;7.05;;
42590;SDS011;28218;53.342;-6.216;2023-04-03T07:04:25;21.40;;;6.22;;
42590;SDS011;28218;53.342;-6.216;2023-04-03T07:06:53;22.02;;;6.63;;
42590;SDS011;28218;53.342;-6.216;2023-04-03T07:09:22;17.63;;;6.35;;
42590;SDS011;28218;53.342;-6.216;2023-04-03T07:11:50;20.13;;;5.65;;
42590;SDS011;28218;53.342;-6.216;2023-04-03T07:14:18;26.80;;;5.82;;
42590;SDS011;28218;53.342;-6.216;2023-04-03T07:16:49;25.27;;;6.50;;
42590;SDS011;28218;53.342;-6.216;2023-04-03T07:19:17;23.73;;;7.13;;
42590;SDS011;28218;53.342;-6.216;2023-04-03T07:21:45;17.80;;;6.80;;
42590;SDS011;28218;53.342;-6.216;2023-04-03T07:24:13;19.08;;;6.03;;
42590;SDS011;28218;53.342;-6.216;2023-04-03T07:26:42;26.08;;;6.47;;
42590;SDS011;28218;53.342;-6.216;2023-04-03T07:29:11;24.92;;;6.70;;
42590;SDS011;28218;53.342;-6.216;2023-04-03T07:31:40;18.55;;;6.55;;
42590;SDS011;28218;53.342;-6.216;2023-04-03T07:34:11;17.70;;;6.28;;
42590;SDS011;28218;53.342;-6.216;2023-04-03T07:36:39;18.15;;;6.03;;
42590;SDS011;28218;53.342;-6.216;2023-04-03T07:39:07;29.30;;;6.00;;
42590;SDS011;28218;53.342;-6.216;2023-04-03T07:41:35;14.55;;;4.80;;
42590;SDS011;28218;53.342;-6.216;2023-04-03T07:44:04;24.60;;;4.45;;
42590;SDS011;28218;53.342;-6.216;2023-04-03T07:46:32;12.00;;;4.03;;
42590;SDS011;28218;53.342;-6.216;2023-04-03T07:49:00;17.08;;;4.57;;
42590;SDS011;28218;53.342;-6.216;2023-04-03T07:51:30;21.42;;;4.20;;
42590;SDS011;28218;53.342;-6.216;2023-04-03T07:53:58;12.18;;;3.72;;
42590;SDS011;28218;53.342;-6.216;2023-04-03T07:56:26;10.02;;;3.72;;
42590;SDS011;28218;53.342;-6.216;2023-04-03T07:58:54;20.40;;;3.30;;
42590;SDS011;28218;53.342;-6.216;2023-04-03T08:01:23;19.13;;;3.97;;
42590;SDS011;28218;53.342;-6.216;2023-04-03T08:03:51;26.58;;;4.57;;
42590;SDS011;28218;53.342;-6.216;2023-04-03T08:06:19;25.08;;;3.85;;
42590;SDS011;28218;53.342;-6.216;2023-04-03T08:09:09;21.27;;;3.92;;
42590;SDS011;28218;53.342;-6.216;2023-04-03T08:11:38;16.30;;;4.90;;
42590;SDS011;28218;53.342;-6.216;2023-04-03T08:14:06;18.58;;;3.42;;
42590;SDS011;28218;53.342;-6.216;2023-04-03T08:16:34;17.00;;;3.38;;
42590;SDS011;28218;53.342;-6.216;2023-04-03T08:19:03;14.23;;;3.30;;
42590;SDS011;28218;53.342;-6.216;2023-04-03T08:21:40;17.52;;;4.20;;
42590;SDS011;28218;53.342;-6.216;2023-04-03T08:24:10;17.98;;;3.63;;
42590;SDS011;28218;53.342;-6.216;2023-04-03T08:26:38;20.65;;;4.28;;
42590;SDS011;28218;53.342;-6.216;2023-04-03T08:29:06;21.70;;;3.45;;
42590;SDS011;28218;53.342;-6.216;2023-04-03T08:31:34;11.35;;;3.40;;
42590;SDS011;28218;53.342;-6.216;2023-04-03T08:34:03;13.73;;;3.45;;
42590;SDS011;28218;53.342;-6.216;2023-04-03T08:36:31;29.15;;;4.13;;
42590;SDS011;28218;53.342;-6.216;2023-04-03T08:39:00;31.38;;;4.30;;
42590;SDS011;28218;53.342;-6.216;2023-04-03T08:41:31;13.95;;;3.45;;
42590;SDS011;28218;53.342;-6.216;2023-04-03T08:44:10;13.68;;;3.85;;
42590;SDS011;28218;53.342;-6.216;2023-04-03T08:46:49;14.93;;;3.60;;
42590;SDS011;28218;53.342;-6.216;2023-04-03T08:49:33;22.02;;;3.35;;
42590;SDS011;28218;53.342;-6.216;2023-04-03T08:52:08;24.85;;;4.97;;
42590;SDS011;28218;53.342;-6.216;2023-04-03T08:54:41;16.63;;;3.45;;
42590;SDS011;28218;53.342;-6.216;2023-04-03T08:57:20;14.80;;;4.00;;
42590;SDS011;28218;53.342;-6.216;2023-04-03T08:59:59;13.80;;;3.63;;
42590;SDS011;28218;53.342;-6.216;2023-04-03T09:02:31;12.27;;;3.40;;
42590;SDS011;28218;53.342;-6.216;2023-04-03T09:05:06;22.45;;;5.05;;
42590;SDS011;28218;53.342;-6.216;2023-04-03T09:07:42;18.63;;;5.47;;
42590;SDS011;28218;53.342;-6.216;2023-04-03T09:10:16;13.27;;;3.70;;
42590;SDS011;28218;53.342;-6.216;2023-04-03T09:12:52;17.38;;;3.50;;
42590;SDS011;28218;53.342;-6.216;2023-04-03T09:15:27;20.15;;;4.10;;
42590;SDS011;28218;53.342;-6.216;2023-04-03T09:18:05;13.93;;;3.65;;
42590;SDS011;28218;53.342;-6.216;2023-04-03T09:20:40;19.42;;;4.28;;
42590;SDS011;28218;53.342;-6.216;2023-04-03T09:23:15;10.82;;;3.47;;
42590;SDS011;28218;53.342;-6.216;2023-04-03T09:25:48;17.85;;;4.10;;
42590;SDS011;28218;53.342;-6.216;2023-04-03T09:28:22;16.25;;;3.35;;
42590;SDS011;28218;53.342;-6.216;2023-04-03T09:30:51;18.33;;;4.35;;
42590;SDS011;28218;53.342;-6.216;2023-04-03T09:33:19;12.18;;;3.28;;
42590;SDS011;28218;53.342;-6.216;2023-04-03T09:35:49;15.52;;;3.88;;
42590;SDS011;28218;53.342;-6.216;2023-04-03T09:38:19;19.10;;;4.07;;
42590;SDS011;28218;53.342;-6.216;2023-04-03T09:40:49;24.25;;;4.68;;
42590;SDS011;28218;53.342;-6.216;2023-04-03T09:43:24;15.60;;;4.05;;
42590;SDS011;28218;53.342;-6.216;2023-04-03T09:45:55;17.60;;;3.47;;
42590;SDS011;28218;53.342;-6.216;2023-04-03T09:48:52;17.45;;;5.18;;
42590;SDS011;28218;53.342;-6.216;2023-04-03T09:51:34;17.83;;;3.45;;
42590;SDS011;28218;53.342;-6.216;2023-04-03T09:54:23;18.45;;;3.83;;
42590;SDS011;28218;53.342;-6.216;2023-04-03T09:56:54;18.30;;;3.60;;
42590;SDS011;28218;53.342;-6.216;2023-04-03T09:59:24;19.38;;;3.65;;
42590;SDS011;28218;53.342;-6.216;2023-04-03T10:01:57;11.38;;;3.65;;
42590;SDS011;28218;53.342;-6.216;2023-04-03T10:04:27;18.95;;;4.30;;
42590;SDS011;28218;53.342;-6.216;2023-04-03T10:07:25;17.05;;;5.20;;
42590;SDS011;28218;53.342;-6.216;2023-04-03T10:09:56;30.42;;;5.00;;
42590;SDS011;28218;53.342;-6.216;2023-04-03T10:12:25;25.25;;;4.70;;
42590;SDS011;28218;53.342;-6.216;2023-04-03T10:14:55;23.25;;;4.20;;
42590;SDS011;28218;53.342;-6.216;2023-04-03T10:17:31;21.63;;;4.22;;
42590;SDS011;28218;53.342;-6.216;2023-04-03T10:20:18;22.02;;;4.00;;
42590;SDS011;28218;53.342;-6.216;2023-04-03T10:22:58;22.38;;;4.55;;
42590;SDS011;28218;53.342;-6.216;2023-04-03T10:25:32;17.80;;;3.40;;
42590;SDS011;28218;53.342;-6.216;2023-04-03T10:28:07;17.00;;;4.00;;
42590;SDS011;28218;53.342;-6.216;2023-04-03T10:30:48;18.92;;;4.32;;
42590;SDS011;28218;53.342;-6.216;2023-04-03T10:33:25;14.85;;;4.10;;
42590;SDS011;28218;53.342;-6.216;2023-04-03T10:38:43;27.13;;;4.65;;
42590;SDS011;28218;53.342;-6.216;2023-04-03T10:41:21;22.30;;;5.25;;
42590;SDS011;28218;53.342;-6.216;2023-04-03T10:43:59;18.73;;;4.68;;
42590;SDS011;28218;53.342;-6.216;2023-04-03T10:46:38;30.00;;;6.75;;
42590;SDS011;28218;53.342;-6.216;2023-04-03T10:49:20;23.00;;;5.03;;
42590;SDS011;28218;53.342;-6.216;2023-04-03T10:51:58;22.88;;;5.70;;
42590;SDS011;28218;53.342;-6.216;2023-04-03T10:54:35;18.38;;;4.38;;
42590;SDS011;28218;53.342;-6.216;2023-04-03T10:57:08;21.85;;;4.50;;
42590;SDS011;28218;53.342;-6.216;2023-04-03T10:59:40;22.65;;;4.57;;
42590;SDS011;28218;53.342;-6.216;2023-04-03T11:02:16;21.65;;;5.03;;
42590;SDS011;28218;53.342;-6.216;2023-04-03T11:04:53;29.60;;;5.18;;
42590;SDS011;28218;53.342;-6.216;2023-04-03T11:07:28;24.58;;;4.90;;
42590;SDS011;28218;53.342;-6.216;2023-04-03T11:10:02;18.90;;;4.88;;
42590;SDS011;28218;53.342;-6.216;2023-04-03T11:12:41;24.27;;;5.05;;
42590;SDS011;28218;53.342;-6.216;2023-04-03T11:15:14;21.42;;;4.97;;
42590;SDS011;28218;53.342;-6.216;2023-04-03T11:17:46;20.67;;;4.45;;
42590;SDS011;28218;53.342;-6.216;2023-04-03T11:20:20;24.20;;;4.97;;
42590;SDS011;28218;53.342;-6.216;2023-04-03T11:22:56;29.20;;;4.78;;
42590;SDS011;28218;53.342;-6.216;2023-04-03T11:25:29;24.10;;;5.50;;
42590;SDS011;28218;53.342;-6.216;2023-04-03T11:27:59;28.65;;;5.60;;
42590;SDS011;28218;53.342;-6.216;2023-04-03T11:30:30;20.63;;;5.40;;
42590;SDS011;28218;53.342;-6.216;2023-04-03T11:36:10;38.30;;;5.13;;
42590;SDS011;28218;53.342;-6.216;2023-04-03T11:38:57;25.10;;;5.47;;
42590;SDS011;28218;53.342;-6.216;2023-04-03T11:41:29;23.75;;;6.07;;
42590;SDS011;28218;53.342;-6.216;2023-04-03T11:43:59;27.13;;;4.68;;
42590;SDS011;28218;53.342;-6.216;2023-04-03T11:58:22;24.20;;;5.60;;
42590;SDS011;28218;53.342;-6.216;2023-04-03T12:00:53;28.90;;;5.40;;
42590;SDS011;28218;53.342;-6.216;2023-04-03T12:06:50;36.28;;;5.88;;
42590;SDS011;28218;53.342;-6.216;2023-04-03T12:09:52;27.40;;;5.43;;
42590;SDS011;28218;53.342;-6.216;2023-04-03T12:12:28;23.85;;;5.05;;
42590;SDS011;28218;53.342;-6.216;2023-04-03T12:15:12;17.05;;;5.15;;
42590;SDS011;28218;53.342;-6.216;2023-04-03T12:17:47;21.75;;;5.35;;
42590;SDS011;28218;53.342;-6.216;2023-04-03T12:23:54;27.98;;;6.20;;
42590;SDS011;28218;53.342;-6.216;2023-04-03T12:26:25;26.45;;;4.90;;
42590;SDS011;28218;53.342;-6.216;2023-04-03T12:29:14;21.20;;;4.45;;
42590;SDS011;28218;53.342;-6.216;2023-04-03T12:31:50;27.58;;;5.25;;
42590;SDS011;28218;53.342;-6.216;2023-04-03T12:34:42;24.27;;;5.80;;
42590;SDS011;28218;53.342;-6.216;2023-04-03T12:37:23;19.75;;;5.03;;
42590;SDS011;28218;53.342;-6.216;2023-04-03T12:40:11;27.58;;;4.65;;
42590;SDS011;28218;53.342;-6.216;2023-04-03T12:42:55;27.25;;;5.28;;
42590;SDS011;28218;53.342;-6.216;2023-04-03T12:45:40;28.65;;;4.90;;
42590;SDS011;28218;53.342;-6.216;2023-04-03T12:48:14;27.52;;;5.78;;
42590;SDS011;28218;53.342;-6.216;2023-04-03T12:50:45;23.65;;;4.47;;
42590;SDS011;28218;53.342;-6.216;2023-04-03T12:53:16;20.35;;;5.97;;
42590;SDS011;28218;53.342;-6.216;2023-04-03T12:55:49;29.73;;;4.28;;
42590;SDS011;28218;53.342;-6.216;2023-04-03T12:58:22;16.42;;;4.32;;
42590;SDS011;28218;53.342;-6.216;2023-04-03T13:00:58;33.00;;;5.68;;
42590;SDS011;28218;53.342;-6.216;2023-04-03T13:03:28;23.10;;;4.82;;
42590;SDS011;28218;53.342;-6.216;2023-04-03T13:05:59;24.10;;;5.38;;
42590;SDS011;28218;53.342;-6.216;2023-04-03T13:08:30;29.45;;;6.68;;
42590;SDS011;28218;53.342;-6.216;2023-04-03T13:11:01;25.45;;;5.50;;
42590;SDS011;28218;53.342;-6.216;2023-04-03T13:13:33;23.80;;;5.13;;
42590;SDS011;28218;53.342;-6.216;2023-04-03T13:16:07;29.77;;;5.72;;
42590;SDS011;28218;53.342;-6.216;2023-04-03T13:18:37;24.52;;;4.82;;
42590;SDS011;28218;53.342;-6.216;2023-04-03T13:21:06;33.10;;;4.93;;
42590;SDS011;28218;53.342;-6.216;2023-04-03T13:23:38;18.35;;;4.90;;
42590;SDS011;28218;53.342;-6.216;2023-04-03T13:26:11;23.02;;;5.30;;
42590;SDS011;28218;53.342;-6.216;2023-04-03T13:28:40;23.92;;;4.80;;
42590;SDS011;28218;53.342;-6.216;2023-04-03T13:31:16;16.42;;;5.28;;
42590;SDS011;28218;53.342;-6.216;2023-04-03T13:33:52;30.27;;;5.75;;
42590;SDS011;28218;53.342;-6.216;2023-04-03T13:36:24;27.92;;;5.47;;
42590;SDS011;28218;53.342;-6.216;2023-04-03T13:38:59;15.48;;;4.82;;
42590;SDS011;28218;53.342;-6.216;2023-04-03T13:41:32;21.33;;;4.57;;
42590;SDS011;28218;53.342;-6.216;2023-04-03T13:46:57;19.63;;;4.93;;
42590;SDS011;28218;53.342;-6.216;2023-04-03T13:49:31;23.88;;;4.53;;
42590;SDS011;28218;53.342;-6.216;2023-04-03T13:52:02;18.50;;;4.20;;
42590;SDS011;28218;53.342;-6.216;2023-04-03T13:54:51;36.38;;;5.65;;
42590;SDS011;28218;53.342;-6.216;2023-04-03T13:57:23;20.23;;;4.38;;
42590;SDS011;28218;53.342;-6.216;2023-04-03T13:59:52;24.02;;;4.28;;
42590;SDS011;28218;53.342;-6.216;2023-04-03T14:02:21;19.92;;;4.03;;
42590;SDS011;28218;53.342;-6.216;2023-04-03T14:04:57;15.27;;;4.18;;
42590;SDS011;28218;53.342;-6.216;2023-04-03T14:07:28;24.08;;;5.63;;
42590;SDS011;28218;53.342;-6.216;2023-04-03T14:09:57;18.23;;;5.07;;
42590;SDS011;28218;53.342;-6.216;2023-04-03T14:12:28;19.92;;;3.88;;
42590;SDS011;28218;53.342;-6.216;2023-04-03T14:15:01;28.63;;;4.63;;
42590;SDS011;28218;53.342;-6.216;2023-04-03T14:17:31;20.95;;;4.95;;
42590;SDS011;28218;53.342;-6.216;2023-04-03T14:20:00;28.45;;;4.05;;
42590;SDS011;28218;53.342;-6.216;2023-04-03T14:22:29;23.00;;;4.82;;
42590;SDS011;28218;53.342;-6.216;2023-04-03T14:24:58;34.65;;;4.40;;
42590;SDS011;28218;53.342;-6.216;2023-04-03T14:27:29;22.17;;;5.07;;
42590;SDS011;28218;53.342;-6.216;2023-04-03T14:30:01;25.92;;;5.13;;
42590;SDS011;28218;53.342;-6.216;2023-04-03T14:32:30;29.77;;;6.32;;
42590;SDS011;28218;53.342;-6.216;2023-04-03T14:34:59;17.75;;;4.80;;
42590;SDS011;28218;53.342;-6.216;2023-04-03T14:37:28;26.08;;;4.68;;
42590;SDS011;28218;53.342;-6.216;2023-04-03T14:39:59;25.67;;;4.68;;
42590;SDS011;28218;53.342;-6.216;2023-04-03T14:42:32;15.18;;;3.72;;
42590;SDS011;28218;53.342;-6.216;2023-04-03T14:45:03;9.45;;;3.38;;
42590;SDS011;28218;53.342;-6.216;2023-04-03T14:47:33;23.30;;;4.50;;
42590;SDS011;28218;53.342;-6.216;2023-04-03T14:50:07;17.92;;;4.30;;
42590;SDS011;28218;53.342;-6.216;2023-04-03T14:52:41;18.27;;;4.20;;
42590;SDS011;28218;53.342;-6.216;2023-04-03T14:55:12;28.50;;;5.00;;
42590;SDS011;28218;53.342;-6.216;2023-04-03T14:57:43;28.77;;;5.57;;
42590;SDS011;28218;53.342;-6.216;2023-04-03T15:00:12;17.42;;;3.08;;
42590;SDS011;28218;53.342;-6.216;2023-04-03T15:02:42;29.23;;;4.90;;
42590;SDS011;28218;53.342;-6.216;2023-04-03T15:05:12;27.65;;;3.78;;
42590;SDS011;28218;53.342;-6.216;2023-04-03T15:07:41;27.77;;;6.15;;
42590;SDS011;28218;53.342;-6.216;2023-04-03T15:10:14;14.35;;;3.45;;
42590;SDS011;28218;53.342;-6.216;2023-04-03T15:12:47;26.85;;;4.55;;
42590;SDS011;28218;53.342;-6.216;2023-04-03T15:15:17;31.98;;;4.05;;
42590;SDS011;28218;53.342;-6.216;2023-04-03T15:17:47;13.07;;;3.92;;
42590;SDS011;28218;53.342;-6.216;2023-04-03T15:20:21;16.33;;;3.70;;
42590;SDS011;28218;53.342;-6.216;2023-04-03T15:22:50;16.90;;;3.92;;